KBFF/BFF METAR and TAF weather

Enter ICAO airport designator
Station Type Date Time Source
KBFF METAR 2020/09/25 05:53 UTC NOAA

KBFF 250553Z AUTO 06004KT 10SM CLR 16/03 A2983 RMK AO2 SLP055 T01610033 10322 20150 58001


Station Type Date Time Source
KBFF Decoded METAR 2020/09/25 05:53 UTC NOAA

SCOTTSBLUFF HEILIG FIELD, NE, United States (KBFF) 41-52N 103-36W 1203M
Sep 25, 2020 - 01:53 AM EDT / 2020.09.25 0553 UTC
Wind: from the ENE (060 degrees) at 5 MPH (4 KT):0
Visibility: 10 mile(s):0
Sky conditions: clear
Temperature: 61.0 F (16.1 C)
Dew Point: 37.9 F (3.3 C)
Relative Humidity: 42%
Pressure (altimeter): 29.83 in. Hg (1010 hPa)
Pressure tendency: 0.00 inches (0.1 hPa) lower than three hours ago
ob: KBFF 250553Z AUTO 06004KT 10SM CLR 16/03 A2983 RMK AO2 SLP055 T01610033 10322 20150 58001
cycle: 6

Station Type Date Time Source
KBFF TAF 2020/09/25 06:24 UTC NOAA

TAF KBFF 250521Z 2506/2606 VRB06KT P6SM SKC
FM252000 18010KT P6SM FEW150
FM252200 15008KT P6SM BKN150

Example: see airport list